ARG1898 SABE-SAWC
Flight info
| Callsign | ARG1898 |
|---|---|
| Flight time | N/A |
| Altitude | 38000 |
| Route | PTA8 GBE UT694 IREMO/N0465F400 UP664 CRV UW48 BOKUK BOKUK2Q |
| Aircraft | E190/M-SDE3GILORVW/S |
Departure
| Time | N/A |
|---|---|
| Airport | Aeroparque Jorge Newbery (SABE) |
Arrival
| Time | 2026-05-07 18:21 |
|---|---|
| Airport | El Calafate - Commander Armando Tola International Airport (SAWC) |
| Time | Latitude | Longitude | Altitude | Speed | Heading |
|---|---|---|---|---|---|
| 2026-05-07 17:52 | -48.51752 | -70.11059 | 36629 ft | 385 kts | 216° |
| 2026-05-07 17:53 | -48.53941 | -70.13357 | 36202 ft | 380 kts | 216° |
| 2026-05-07 17:53 | -48.56107 | -70.15635 | 35794 ft | 375 kts | 215° |
| 2026-05-07 17:53 | -48.58243 | -70.17883 | 35388 ft | 374 kts | 215° |
| 2026-05-07 17:53 | -48.60354 | -70.20106 | 34986 ft | 373 kts | 214° |
| 2026-05-07 17:54 | -48.62492 | -70.22362 | 34563 ft | 372 kts | 215° |
| 2026-05-07 17:54 | -48.64597 | -70.24585 | 34183 ft | 372 kts | 214° |
| 2026-05-07 17:54 | -48.66707 | -70.26815 | 33712 ft | 370 kts | 214° |
| 2026-05-07 17:54 | -48.68805 | -70.29034 | 33310 ft | 369 kts | 214° |
| 2026-05-07 17:55 | -48.70942 | -70.31297 | 32894 ft | 370 kts | 215° |
| 2026-05-07 17:55 | -48.73047 | -70.33529 | 32498 ft | 371 kts | 215° |
| 2026-05-07 17:55 | -48.75161 | -70.35772 | 32082 ft | 372 kts | 214° |
| 2026-05-07 17:55 | -48.77266 | -70.38009 | 31677 ft | 372 kts | 214° |
| 2026-05-07 17:56 | -48.79414 | -70.40292 | 31265 ft | 372 kts | 215° |
| 2026-05-07 17:56 | -48.81533 | -70.42549 | 30856 ft | 374 kts | 215° |
| 2026-05-07 17:56 | -48.83644 | -70.44799 | 30435 ft | 369 kts | 215° |
| 2026-05-07 17:56 | -48.85735 | -70.47029 | 30024 ft | 366 kts | 215° |
| 2026-05-07 17:57 | -48.87798 | -70.49234 | 29635 ft | 362 kts | 215° |
| 2026-05-07 17:57 | -48.89855 | -70.51433 | 29234 ft | 362 kts | 215° |
| 2026-05-07 17:57 | -48.91905 | -70.53627 | 28833 ft | 358 kts | 215° |
| 2026-05-07 17:57 | -48.93916 | -70.55782 | 28437 ft | 357 kts | 215° |
| 2026-05-07 17:58 | -48.95944 | -70.57957 | 28035 ft | 354 kts | 215° |
| 2026-05-07 17:58 | -48.97975 | -70.60136 | 27643 ft | 352 kts | 215° |
| 2026-05-07 17:58 | -48.99942 | -70.62251 | 27259 ft | 351 kts | 215° |
| 2026-05-07 17:58 | -49.01927 | -70.64384 | 26881 ft | 348 kts | 215° |
| 2026-05-07 17:59 | -49.03891 | -70.66501 | 26498 ft | 346 kts | 216° |
| 2026-05-07 17:59 | -49.05827 | -70.68587 | 26125 ft | 344 kts | 216° |
| 2026-05-07 17:59 | -49.07764 | -70.70676 | 25745 ft | 342 kts | 216° |
| 2026-05-07 17:59 | -49.09698 | -70.72765 | 25399 ft | 340 kts | 215° |
| 2026-05-07 18:00 | -49.11618 | -70.74839 | 25033 ft | 340 kts | 215° |
| 2026-05-07 18:00 | -49.13546 | -70.76926 | 24637 ft | 337 kts | 216° |
| 2026-05-07 18:00 | -49.15429 | -70.78964 | 24292 ft | 334 kts | 216° |
| 2026-05-07 18:00 | -49.17314 | -70.81009 | 23944 ft | 333 kts | 216° |
| 2026-05-07 18:01 | -49.19187 | -70.83041 | 23605 ft | 332 kts | 216° |
| 2026-05-07 18:01 | -49.21080 | -70.85097 | 23211 ft | 334 kts | 216° |
| 2026-05-07 18:01 | -49.22961 | -70.87141 | 22859 ft | 333 kts | 216° |
| 2026-05-07 18:01 | -49.24845 | -70.89191 | 22500 ft | 333 kts | 216° |
| 2026-05-07 18:02 | -49.28625 | -70.93311 | 21745 ft | 333 kts | 216° |
| 2026-05-07 18:02 | -49.30491 | -70.95348 | 21399 ft | 332 kts | 216° |
| 2026-05-07 18:02 | -49.32373 | -70.97404 | 21016 ft | 333 kts | 216° |
| 2026-05-07 18:03 | -49.34246 | -70.99452 | 20646 ft | 332 kts | 216° |
| 2026-05-07 18:03 | -49.36126 | -71.01510 | 20281 ft | 333 kts | 216° |
| 2026-05-07 18:03 | -49.38018 | -71.03583 | 19909 ft | 334 kts | 216° |
| 2026-05-07 18:03 | -49.39891 | -71.05636 | 19543 ft | 333 kts | 216° |
| 2026-05-07 18:04 | -49.41783 | -71.07713 | 19170 ft | 334 kts | 216° |
| 2026-05-07 18:04 | -49.43687 | -71.09804 | 18787 ft | 334 kts | 216° |
| 2026-05-07 18:04 | -49.45558 | -71.11862 | 18413 ft | 333 kts | 216° |
| 2026-05-07 18:04 | -49.47421 | -71.13914 | 18047 ft | 331 kts | 216° |
| 2026-05-07 18:05 | -49.49305 | -71.15989 | 17677 ft | 329 kts | 216° |
| 2026-05-07 18:05 | -49.51155 | -71.18030 | 17310 ft | 328 kts | 216° |
| 2026-05-07 18:05 | -49.52987 | -71.20052 | 16949 ft | 327 kts | 216° |
| 2026-05-07 18:05 | -49.54837 | -71.22096 | 16584 ft | 326 kts | 216° |
| 2026-05-07 18:06 | -49.56688 | -71.24144 | 16213 ft | 326 kts | 216° |
| 2026-05-07 18:06 | -49.58513 | -71.26164 | 15848 ft | 325 kts | 216° |
| 2026-05-07 18:06 | -49.60324 | -71.28172 | 15498 ft | 323 kts | 216° |
| 2026-05-07 18:06 | -49.62234 | -71.30011 | 15138 ft | 321 kts | 207° |
| 2026-05-07 18:07 | -49.64247 | -71.31564 | 14787 ft | 322 kts | 207° |
| 2026-05-07 18:07 | -49.66222 | -71.33085 | 14423 ft | 321 kts | 207° |
| 2026-05-07 18:07 | -49.68250 | -71.34648 | 14056 ft | 320 kts | 207° |
| 2026-05-07 18:07 | -49.70217 | -71.36167 | 13698 ft | 319 kts | 207° |
| 2026-05-07 18:08 | -49.72198 | -71.37698 | 13339 ft | 318 kts | 207° |
| 2026-05-07 18:08 | -49.74182 | -71.39232 | 12988 ft | 316 kts | 207° |
| 2026-05-07 18:08 | -49.76135 | -71.40743 | 12638 ft | 315 kts | 207° |
| 2026-05-07 18:08 | -49.78068 | -71.42241 | 12291 ft | 313 kts | 207° |
| 2026-05-07 18:09 | -49.80022 | -71.43756 | 11936 ft | 312 kts | 207° |
| 2026-05-07 18:09 | -49.81945 | -71.45248 | 11587 ft | 307 kts | 207° |
| 2026-05-07 18:09 | -49.83841 | -71.46721 | 11247 ft | 301 kts | 206° |
| 2026-05-07 18:09 | -49.85700 | -71.48167 | 10910 ft | 293 kts | 206° |
| 2026-05-07 18:10 | -49.87516 | -71.49580 | 10581 ft | 287 kts | 207° |
| 2026-05-07 18:10 | -49.89284 | -71.50957 | 10260 ft | 280 kts | 207° |
| 2026-05-07 18:10 | -49.91019 | -71.52309 | 9963 ft | 274 kts | 207° |
| 2026-05-07 18:10 | -49.92725 | -71.53639 | 9689 ft | 272 kts | 207° |
| 2026-05-07 18:11 | -49.94395 | -71.54943 | 9400 ft | 270 kts | 207° |
| 2026-05-07 18:11 | -49.96077 | -71.56258 | 9103 ft | 270 kts | 207° |
| 2026-05-07 18:11 | -49.97770 | -71.57582 | 8801 ft | 270 kts | 207° |
| 2026-05-07 18:11 | -49.99469 | -71.58911 | 8484 ft | 268 kts | 207° |
| 2026-05-07 18:12 | -50.01121 | -71.60205 | 8207 ft | 265 kts | 207° |
| 2026-05-07 18:12 | -50.02752 | -71.61484 | 7929 ft | 265 kts | 207° |
| 2026-05-07 18:12 | -50.04398 | -71.62775 | 7646 ft | 264 kts | 207° |
| 2026-05-07 18:12 | -50.06028 | -71.64054 | 7367 ft | 261 kts | 207° |
| 2026-05-07 18:13 | -50.07635 | -71.65317 | 7093 ft | 261 kts | 208° |
| 2026-05-07 18:13 | -50.09243 | -71.66582 | 6821 ft | 258 kts | 207° |
| 2026-05-07 18:13 | -50.10810 | -71.67814 | 6551 ft | 248 kts | 207° |
| 2026-05-07 18:13 | -50.12324 | -71.69006 | 6375 ft | 235 kts | 207° |
| 2026-05-07 18:14 | -50.13744 | -71.70124 | 6361 ft | 224 kts | 208° |
| 2026-05-07 18:14 | -50.15144 | -71.71228 | 6375 ft | 226 kts | 208° |
| 2026-05-07 18:14 | -50.16601 | -71.72332 | 5730 ft | 242 kts | 200° |
| 2026-05-07 18:14 | -50.18203 | -71.73038 | 5423 ft | 235 kts | 197° |
| 2026-05-07 18:15 | -50.19750 | -71.73682 | 5082 ft | 221 kts | 196° |
| 2026-05-07 18:15 | -50.21182 | -71.74275 | 4850 ft | 205 kts | 197° |
| 2026-05-07 18:15 | -50.22500 | -71.74822 | 4823 ft | 187 kts | 197° |
| 2026-05-07 18:15 | -50.23683 | -71.75312 | 4850 ft | 166 kts | 197° |
| 2026-05-07 18:16 | -50.24779 | -71.75767 | 4765 ft | 160 kts | 197° |
| 2026-05-07 18:16 | -50.25774 | -71.76437 | 4629 ft | 159 kts | 226° |
| 2026-05-07 18:16 | -50.26228 | -71.77966 | 4541 ft | 149 kts | 260° |
| 2026-05-07 18:16 | -50.26370 | -71.79559 | 4555 ft | 153 kts | 261° |
| 2026-05-07 18:17 | -50.26508 | -71.81270 | 3792 ft | 168 kts | 262° |
| 2026-05-07 18:17 | -50.26657 | -71.83074 | 3368 ft | 155 kts | 261° |
| 2026-05-07 18:17 | -50.26764 | -71.84655 | 3107 ft | 140 kts | 263° |
| 2026-05-07 18:17 | -50.26852 | -71.86114 | 2881 ft | 130 kts | 263° |
| 2026-05-07 18:18 | -50.26937 | -71.87494 | 2719 ft | 127 kts | 262° |
| 2026-05-07 18:18 | -50.27024 | -71.88897 | 2560 ft | 129 kts | 263° |
| 2026-05-07 18:18 | -50.27110 | -71.90282 | 2386 ft | 130 kts | 264° |
| 2026-05-07 18:18 | -50.27195 | -71.91679 | 2210 ft | 129 kts | 262° |
| 2026-05-07 18:19 | -50.27281 | -71.93084 | 2027 ft | 129 kts | 262° |
| 2026-05-07 18:19 | -50.27366 | -71.94466 | 1848 ft | 129 kts | 263° |
| 2026-05-07 18:19 | -50.27452 | -71.95863 | 1667 ft | 127 kts | 265° |
| 2026-05-07 18:19 | -50.27536 | -71.97243 | 1489 ft | 128 kts | 266° |
| 2026-05-07 18:20 | -50.27620 | -71.98635 | 1313 ft | 129 kts | 263° |
| 2026-05-07 18:20 | -50.27706 | -72.00030 | 1133 ft | 128 kts | 265° |
| 2026-05-07 18:20 | -50.27788 | -72.01422 | 955 ft | 128 kts | 263° |
| 2026-05-07 18:20 | -50.27873 | -72.02804 | 766 ft | 128 kts | 263° |
| 2026-05-07 18:21 | -50.27962 | -72.04196 | 643 ft | 123 kts | 265° |
| 2026-05-07 18:21 | -50.28004 | -72.04976 | 646 ft | 43 kts | 263° |
| 2026-05-07 18:21 | -50.28020 | -72.05226 | 647 ft | 13 kts | 264° |
| 2026-05-07 18:21 | -50.28031 | -72.05368 | 647 ft | 10 kts | 248° |
| 2026-05-07 18:22 | -50.28083 | -72.05415 | 648 ft | 6 kts | 181° |
| 2026-05-07 18:22 | -50.28114 | -72.05415 | 649 ft | 6 kts | 176° |
| 2026-05-07 18:22 | -50.28165 | -72.05409 | 650 ft | 4 kts | 176° |
| 2026-05-07 18:22 | -50.28196 | -72.05405 | 650 ft | 4 kts | 171° |
| 2026-05-07 18:23 | -50.28226 | -72.05397 | 651 ft | 5 kts | 171° |
| 2026-05-07 18:23 | -50.28265 | -72.05387 | 651 ft | 5 kts | 171° |
| 2026-05-07 18:23 | -50.28297 | -72.05378 | 652 ft | 4 kts | 170° |